createdAt,value
2022-08-05T00:04:00.930Z,101379.88
2022-08-05T00:08:57.935Z,101383.78
2022-08-05T00:13:54.527Z,101393.38
2022-08-05T00:18:51.498Z,101393.03
2022-08-05T00:23:53.295Z,101399.44
2022-08-05T00:29:01.720Z,101391.31
2022-08-05T00:34:53.219Z,101394.31
2022-08-05T00:39:15.618Z,101390.41
2022-08-05T00:44:12.217Z,101383.78
2022-08-05T00:49:08.875Z,101404.38
2022-08-05T00:54:12.743Z,101408.72
2022-08-05T00:59:09.415Z,101404.13
2022-08-05T01:04:13.854Z,101414.41
2022-08-05T01:09:11.319Z,101416.38
2022-08-05T01:14:35.401Z,101406.88
2022-08-05T01:20:01.568Z,101400.94
2022-08-05T01:25:06.951Z,101405.81
2022-08-05T01:30:04.818Z,101394.31
2022-08-05T01:35:51.342Z,101376.38
2022-08-05T01:40:35.028Z,101345.75
2022-08-05T01:45:34.949Z,101358.91
2022-08-05T01:50:40.591Z,101346.25
2022-08-05T01:55:48.589Z,101296.22
2022-08-05T02:00:49.737Z,101285.19
2022-08-05T02:05:46.877Z,101285.13
2022-08-05T02:10:49.501Z,101297.72
2022-08-05T02:15:55.811Z,101284.56
2022-08-05T02:20:59.756Z,101271.06
2022-08-05T02:25:57.760Z,101238.66
2022-08-05T02:30:59.435Z,101260.09
2022-08-05T02:36:00.683Z,101264.44
2022-08-05T02:40:58.652Z,101277.13
2022-08-05T02:45:55.524Z,101376.00
2022-08-05T02:51:06.274Z,101384.84
2022-08-05T02:56:06.280Z,101343.66
2022-08-05T03:01:03.679Z,101305.22
2022-08-05T03:06:55.754Z,101307.97
2022-08-05T03:11:57.042Z,101314.81
2022-08-05T03:16:41.100Z,101314.19
2022-08-05T03:21:41.662Z,101302.78
2022-08-05T03:26:49.411Z,101313.47
2022-08-05T03:31:56.509Z,101334.59
2022-08-05T03:36:54.470Z,101343.41
2022-08-05T03:41:52.662Z,101344.69
2022-08-05T03:46:52.872Z,101342.28
2022-08-05T03:52:38.456Z,101337.50
2022-08-05T03:57:19.081Z,101316.50
2022-08-05T04:02:38.934Z,101323.34
2022-08-05T04:07:34.445Z,101327.03
2022-08-05T04:12:51.781Z,101332.13
2022-08-05T04:17:56.104Z,101321.75
2022-08-05T04:22:54.245Z,101335.09
2022-08-05T04:27:57.231Z,101330.56
2022-08-05T04:32:56.896Z,101351.09
2022-08-05T04:38:01.104Z,101349.13
2022-08-05T04:43:02.344Z,101355.22
2022-08-05T04:48:10.253Z,101366.84
2022-08-05T04:53:17.135Z,101380.31
2022-08-05T04:58:15.293Z,101384.56
2022-08-05T05:03:18.809Z,101419.59
2022-08-05T05:08:26.758Z,101420.75
2022-08-05T05:13:32.376Z,101437.75
2022-08-05T05:18:48.532Z,101421.88
2022-08-05T05:24:02.767Z,101414.63
2022-08-05T05:29:02.152Z,101403.72
2022-08-05T05:34:02.047Z,101407.09
2022-08-05T05:38:59.837Z,101400.56
2022-08-05T05:44:00.234Z,101413.47
2022-08-05T05:48:57.383Z,101425.38
2022-08-05T05:53:59.755Z,101411.34
2022-08-05T05:58:56.575Z,101413.88
2022-08-05T06:04:01.880Z,101427.25
2022-08-05T06:09:00.389Z,101452.34
2022-08-05T06:13:57.402Z,101446.81
2022-08-05T06:18:53.939Z,101432.19
2022-08-05T06:23:50.528Z,101438.00
2022-08-05T06:28:47.228Z,101422.25
2022-08-05T06:34:07.970Z,101446.94
2022-08-05T06:39:01.083Z,101449.75
2022-08-05T06:44:00.624Z,101427.16
2022-08-05T06:48:59.250Z,101422.84
2022-08-05T06:53:58.190Z,101424.78
2022-08-05T06:58:55.908Z,101423.81
2022-08-05T07:03:52.624Z,101448.56
2022-08-05T07:08:54.726Z,101446.81
2022-08-05T07:14:20.276Z,101437.03
2022-08-05T07:20:10.643Z,101439.00
2022-08-05T07:24:43.919Z,101445.16
2022-08-05T07:30:22.375Z,101439.22
2022-08-05T07:36:04.263Z,101440.34
2022-08-05T07:40:32.114Z,101443.78
2022-08-05T07:45:56.444Z,101439.41
2022-08-05T07:50:46.542Z,101429.59
2022-08-05T07:56:05.616Z,101424.81
2022-08-05T08:00:59.997Z,101439.91
2022-08-05T08:05:57.028Z,101455.09
2022-08-05T08:10:56.784Z,101443.00
2022-08-05T08:16:34.856Z,101444.84
2022-08-05T08:21:17.761Z,101451.94
2022-08-05T08:26:14.593Z,101446.41
2022-08-05T08:31:17.363Z,101446.09
2022-08-05T08:36:46.340Z,101446.81
2022-08-05T08:41:51.360Z,101454.59
2022-08-05T08:46:51.958Z,101443.78
2022-08-05T08:52:03.525Z,101462.13
2022-08-05T08:57:03.463Z,101471.69
2022-08-05T09:02:02.183Z,101472.72
2022-08-05T09:06:58.937Z,101490.88
2022-08-05T09:11:57.782Z,101507.78
2022-08-05T09:17:40.486Z,101500.81
2022-08-05T09:23:07.787Z,101505.53
2022-08-05T09:28:21.142Z,101508.38
2022-08-05T09:33:18.082Z,101509.22
2022-08-05T09:38:27.447Z,101503.53
2022-08-05T09:43:41.619Z,101502.69
2022-08-05T09:48:38.586Z,101503.53
2022-08-05T09:53:59.107Z,101490.03
2022-08-05T09:59:04.081Z,101487.03
2022-08-05T10:04:11.036Z,101489.44
2022-08-05T10:09:27.852Z,101489.28
2022-08-05T10:14:30.264Z,101497.22
2022-08-05T10:20:04.058Z,101507.03
2022-08-05T10:24:46.786Z,101515.44
2022-08-05T10:30:06.854Z,101522.69
2022-08-05T10:35:04.547Z,101524.13
2022-08-05T10:40:17.598Z,101515.16
2022-08-05T10:45:23.375Z,101531.69
2022-08-05T10:50:36.195Z,101534.94
2022-08-05T10:56:03.661Z,101540.25
2022-08-05T11:00:55.190Z,101535.13
2022-08-05T11:06:06.402Z,101561.41
2022-08-05T11:11:44.676Z,101581.69
2022-08-05T11:17:59.485Z,101588.53
2022-08-05T11:22:49.685Z,101576.06
2022-08-05T11:27:51.790Z,101591.81
2022-08-05T11:33:43.875Z,101600.78
2022-08-05T11:38:45.908Z,101597.09
2022-08-05T11:44:06.730Z,101614.81
2022-08-05T11:49:12.317Z,101610.97
2022-08-05T11:54:11.749Z,101617.59
2022-08-05T11:59:16.835Z,101624.00
2022-08-05T12:04:18.047Z,101632.34
2022-08-05T12:09:20.728Z,101623.13
2022-08-05T12:14:39.198Z,101635.19
2022-08-05T12:20:16.861Z,101641.59
2022-08-05T12:25:14.224Z,101650.66
2022-08-05T12:30:15.514Z,101654.41
2022-08-05T12:35:16.827Z,101646.19
2022-08-05T12:40:26.387Z,101657.41
2022-08-05T12:45:23.370Z,101640.91
2022-08-05T12:50:39.459Z,101651.25
2022-08-05T12:55:37.164Z,101658.50
2022-08-05T13:02:03.363Z,101653.78
2022-08-05T13:05:53.600Z,101645.41
2022-08-05T13:10:50.828Z,101654.03
2022-08-05T13:15:51.229Z,101659.84
2022-08-05T13:20:49.896Z,101659.97
2022-08-05T13:25:52.543Z,101666.31
2022-08-05T13:30:57.251Z,101659.03
2022-08-05T13:35:55.167Z,101670.03
2022-08-05T13:41:00.205Z,101662.59
2022-08-05T13:45:57.200Z,101649.63
2022-08-05T13:50:57.113Z,101648.44
2022-08-05T13:55:57.656Z,101652.16
2022-08-05T14:00:58.762Z,101643.59
2022-08-05T14:06:24.891Z,101650.69
2022-08-05T14:11:20.529Z,101643.97
2022-08-05T14:16:19.264Z,101643.97
2022-08-05T14:22:09.278Z,101650.78
2022-08-05T14:26:35.777Z,101666.00
2022-08-05T14:32:02.436Z,101655.59
2022-08-05T14:36:55.830Z,101643.91
2022-08-05T14:42:15.947Z,101644.13
2022-08-05T14:47:09.165Z,101632.78
2022-08-05T14:52:05.969Z,101641.13
2022-08-05T14:57:09.802Z,101651.94
2022-08-05T15:02:15.920Z,101667.19
2022-08-05T15:08:11.379Z,101668.19
2022-08-05T15:12:59.744Z,101663.06
2022-08-05T15:17:55.081Z,101654.81
2022-08-05T15:22:55.133Z,101647.63
2022-08-05T15:27:54.800Z,101649.47
2022-08-05T15:32:51.586Z,101649.63
2022-08-05T15:38:32.353Z,101656.50
2022-08-05T15:43:09.337Z,101709.13
2022-08-05T15:48:09.916Z,101735.09
2022-08-05T15:53:12.710Z,101738.13
2022-08-05T15:58:16.432Z,101730.09
2022-08-05T16:03:13.700Z,101729.13
2022-08-05T16:08:11.452Z,101731.00
2022-08-05T16:13:12.696Z,101738.00
2022-08-05T16:18:20.081Z,101733.91
2022-08-05T16:23:24.710Z,101744.72
2022-08-05T16:28:21.247Z,101746.72
2022-08-05T16:33:20.932Z,101745.56
2022-08-05T16:38:25.709Z,101753.38
2022-08-05T16:43:26.474Z,101759.19
2022-08-05T16:48:25.438Z,101765.19
2022-08-05T16:53:32.061Z,101765.59
2022-08-05T16:58:29.518Z,101766.19
2022-08-05T17:03:26.503Z,101779.25
2022-08-05T17:08:35.903Z,101787.47
2022-08-05T17:13:37.530Z,101794.28
2022-08-05T17:18:37.996Z,101797.69
2022-08-05T17:24:04.710Z,101799.06
2022-08-05T17:28:52.317Z,101807.03
2022-08-05T17:33:50.826Z,101816.97
2022-08-05T17:38:48.056Z,101841.50
2022-08-05T17:43:50.596Z,101842.59
2022-08-05T17:48:50.086Z,101838.00
2022-08-05T17:53:54.470Z,101851.28
2022-08-05T17:58:51.515Z,101862.16
2022-08-05T18:04:03.816Z,101881.09
2022-08-05T18:09:03.800Z,101874.66
2022-08-05T18:14:13.597Z,101878.28
2022-08-05T18:19:16.958Z,101893.00
2022-08-05T18:24:14.463Z,101892.53
2022-08-05T18:29:11.153Z,101899.19
2022-08-05T18:34:12.202Z,101900.69
2022-08-05T18:39:22.357Z,101909.53
2022-08-05T18:44:34.978Z,101917.28
2022-08-05T18:50:02.800Z,101925.22
2022-08-05T18:54:59.848Z,101930.50
2022-08-05T19:00:02.194Z,101940.78
2022-08-05T19:06:05.722Z,101939.47
2022-08-05T19:10:28.162Z,101954.00
2022-08-05T19:15:58.928Z,101960.03
2022-08-05T19:20:46.958Z,101969.56
2022-08-05T19:25:43.794Z,101976.31
2022-08-05T19:30:44.718Z,101989.28
2022-08-05T19:35:56.540Z,101997.69
2022-08-05T19:40:54.302Z,101994.50
2022-08-05T19:45:54.554Z,102007.22
2022-08-05T19:50:52.757Z,102014.56
2022-08-05T19:56:15.292Z,102024.47
2022-08-05T20:01:06.764Z,102033.28
2022-08-05T20:06:15.610Z,102035.34
2022-08-05T20:11:21.772Z,102038.50
2022-08-05T20:16:19.541Z,102041.69
2022-08-05T20:21:22.951Z,102041.19
2022-08-05T20:26:21.110Z,102053.03
2022-08-05T20:31:21.791Z,102051.63
2022-08-05T20:36:20.765Z,102060.06
2022-08-05T20:41:23.935Z,102070.94
2022-08-05T20:46:24.922Z,102073.13
2022-08-05T20:51:22.166Z,102076.75
2022-08-05T20:56:18.730Z,102088.50
2022-08-05T21:01:26.203Z,102085.31
2022-08-05T21:06:35.464Z,102097.38
2022-08-05T21:12:09.533Z,102100.19
2022-08-05T21:16:48.931Z,102109.44
2022-08-05T21:21:50.963Z,102107.84
2022-08-05T21:26:58.393Z,102121.38
2022-08-05T21:31:55.681Z,102117.22
2022-08-05T21:36:52.815Z,102116.47
2022-08-05T21:41:52.765Z,102107.56
2022-08-05T21:46:58.259Z,102127.44
2022-08-05T21:52:15.821Z,102124.00
2022-08-05T22:02:28.490Z,102127.16
2022-08-05T22:07:39.741Z,102114.91
2022-08-05T22:12:45.033Z,102122.34
2022-08-05T22:17:56.376Z,102131.50
2022-08-05T22:23:17.135Z,102129.97
2022-08-05T22:28:18.327Z,102144.72
2022-08-05T22:33:15.778Z,102153.75
2022-08-05T22:38:12.707Z,102152.13
2022-08-05T22:43:09.314Z,102149.66
2022-08-05T22:48:09.814Z,102155.28
2022-08-05T22:53:09.767Z,102161.81
2022-08-05T22:58:06.568Z,102154.94
2022-08-05T23:03:08.284Z,102160.53
2022-08-05T23:08:10.461Z,102164.41
2022-08-05T23:13:08.053Z,102177.38
2022-08-05T23:18:05.905Z,102170.50
2022-08-05T23:23:09.026Z,102177.72
2022-08-05T23:28:07.007Z,102176.19
2022-08-05T23:33:04.230Z,102187.91
2022-08-05T23:38:00.961Z,102200.69
2022-08-05T23:42:57.532Z,102206.25
2022-08-05T23:47:59.339Z,102209.13
2022-08-05T23:52:56.237Z,102212.16
2022-08-05T23:57:55.211Z,102220.22
